sensor_id;sensor_type;location;lat;lon;timestamp;P1;durP1;ratioP1;P2;durP2;ratioP2
71629;SDS011;59479;51.902;8.212;2023-04-25T00:02:04;9.20;;;3.20;;
71629;SDS011;59479;51.902;8.212;2023-04-25T00:04:30;9.95;;;3.15;;
71629;SDS011;59479;51.902;8.212;2023-04-25T00:06:58;7.60;;;3.07;;
71629;SDS011;59479;51.902;8.212;2023-04-25T00:09:26;10.23;;;2.90;;
71629;SDS011;59479;51.902;8.212;2023-04-25T00:11:52;9.10;;;2.80;;
71629;SDS011;59479;51.902;8.212;2023-04-25T00:14:17;11.17;;;2.70;;
71629;SDS011;59479;51.902;8.212;2023-04-25T00:16:43;10.60;;;2.93;;
71629;SDS011;59479;51.902;8.212;2023-04-25T00:19:09;11.60;;;3.50;;
71629;SDS011;59479;51.902;8.212;2023-04-25T00:21:34;10.37;;;3.27;;
71629;SDS011;59479;51.902;8.212;2023-04-25T00:24:00;9.55;;;3.30;;
71629;SDS011;59479;51.902;8.212;2023-04-25T00:26:26;7.53;;;3.33;;
71629;SDS011;59479;51.902;8.212;2023-04-25T00:28:52;12.52;;;4.30;;
71629;SDS011;59479;51.902;8.212;2023-04-25T00:31:17;7.90;;;2.70;;
71629;SDS011;59479;51.902;8.212;2023-04-25T00:33:42;7.43;;;2.90;;
71629;SDS011;59479;51.902;8.212;2023-04-25T00:36:08;8.10;;;3.80;;
71629;SDS011;59479;51.902;8.212;2023-04-25T00:38:33;9.85;;;2.90;;
71629;SDS011;59479;51.902;8.212;2023-04-25T00:40:59;11.57;;;3.73;;
71629;SDS011;59479;51.902;8.212;2023-04-25T00:43:25;8.57;;;3.03;;
71629;SDS011;59479;51.902;8.212;2023-04-25T00:45:51;9.02;;;3.08;;
71629;SDS011;59479;51.902;8.212;2023-04-25T00:48:17;11.25;;;3.58;;
71629;SDS011;59479;51.902;8.212;2023-04-25T00:50:44;9.60;;;3.10;;
71629;SDS011;59479;51.902;8.212;2023-04-25T00:53:16;11.57;;;3.55;;
71629;SDS011;59479;51.902;8.212;2023-04-25T00:55:42;9.10;;;3.20;;
71629;SDS011;59479;51.902;8.212;2023-04-25T00:58:07;7.20;;;3.00;;
71629;SDS011;59479;51.902;8.212;2023-04-25T01:00:32;8.00;;;3.30;;
71629;SDS011;59479;51.902;8.212;2023-04-25T01:02:58;7.40;;;3.67;;
71629;SDS011;59479;51.902;8.212;2023-04-25T01:05:23;6.90;;;3.13;;
71629;SDS011;59479;51.902;8.212;2023-04-25T01:07:48;10.57;;;3.03;;
71629;SDS011;59479;51.902;8.212;2023-04-25T01:10:14;12.93;;;3.33;;
71629;SDS011;59479;51.902;8.212;2023-04-25T01:12:40;7.97;;;2.80;;
71629;SDS011;59479;51.902;8.212;2023-04-25T01:15:06;9.75;;;3.03;;
71629;SDS011;59479;51.902;8.212;2023-04-25T01:17:31;12.17;;;4.03;;
71629;SDS011;59479;51.902;8.212;2023-04-25T01:19:58;8.23;;;3.45;;
71629;SDS011;59479;51.902;8.212;2023-04-25T01:22:24;8.13;;;3.20;;
71629;SDS011;59479;51.902;8.212;2023-04-25T01:24:50;9.88;;;3.67;;
71629;SDS011;59479;51.902;8.212;2023-04-25T01:27:16;8.73;;;3.63;;
71629;SDS011;59479;51.902;8.212;2023-04-25T01:29:42;7.65;;;3.33;;
71629;SDS011;59479;51.902;8.212;2023-04-25T01:32:07;9.53;;;3.00;;
71629;SDS011;59479;51.902;8.212;2023-04-25T01:34:33;8.27;;;3.33;;
71629;SDS011;59479;51.902;8.212;2023-04-25T01:36:59;9.60;;;3.23;;
71629;SDS011;59479;51.902;8.212;2023-04-25T01:39:24;9.50;;;3.13;;
71629;SDS011;59479;51.902;8.212;2023-04-25T01:41:50;10.77;;;3.72;;
71629;SDS011;59479;51.902;8.212;2023-04-25T01:44:16;10.03;;;3.17;;
71629;SDS011;59479;51.902;8.212;2023-04-25T01:46:41;9.17;;;2.80;;
71629;SDS011;59479;51.902;8.212;2023-04-25T01:49:06;12.93;;;3.80;;
71629;SDS011;59479;51.902;8.212;2023-04-25T01:51:32;8.85;;;3.38;;
71629;SDS011;59479;51.902;8.212;2023-04-25T01:53:58;8.90;;;3.50;;
71629;SDS011;59479;51.902;8.212;2023-04-25T01:56:23;8.57;;;2.93;;
71629;SDS011;59479;51.902;8.212;2023-04-25T01:58:49;7.20;;;3.30;;
71629;SDS011;59479;51.902;8.212;2023-04-25T02:01:14;8.60;;;3.55;;
71629;SDS011;59479;51.902;8.212;2023-04-25T02:03:39;8.40;;;3.20;;
71629;SDS011;59479;51.902;8.212;2023-04-25T02:06:05;9.53;;;3.37;;
71629;SDS011;59479;51.902;8.212;2023-04-25T02:08:30;10.83;;;3.93;;
71629;SDS011;59479;51.902;8.212;2023-04-25T02:10:56;8.00;;;3.33;;
71629;SDS011;59479;51.902;8.212;2023-04-25T02:13:21;9.53;;;3.17;;
71629;SDS011;59479;51.902;8.212;2023-04-25T02:15:47;11.17;;;3.47;;
71629;SDS011;59479;51.902;8.212;2023-04-25T02:18:12;6.20;;;3.37;;
71629;SDS011;59479;51.902;8.212;2023-04-25T02:20:38;10.17;;;3.60;;
71629;SDS011;59479;51.902;8.212;2023-04-25T02:23:03;7.10;;;3.83;;
71629;SDS011;59479;51.902;8.212;2023-04-25T02:25:28;13.10;;;3.33;;
71629;SDS011;59479;51.902;8.212;2023-04-25T02:27:54;10.00;;;3.63;;
71629;SDS011;59479;51.902;8.212;2023-04-25T02:30:19;8.80;;;3.47;;
71629;SDS011;59479;51.902;8.212;2023-04-25T02:32:45;9.67;;;4.00;;
71629;SDS011;59479;51.902;8.212;2023-04-25T02:35:11;9.20;;;3.33;;
71629;SDS011;59479;51.902;8.212;2023-04-25T02:37:36;6.43;;;3.33;;
71629;SDS011;59479;51.902;8.212;2023-04-25T02:40:03;9.68;;;3.03;;
71629;SDS011;59479;51.902;8.212;2023-04-25T02:42:29;6.88;;;3.55;;
71629;SDS011;59479;51.902;8.212;2023-04-25T02:44:55;9.07;;;3.55;;
71629;SDS011;59479;51.902;8.212;2023-04-25T02:47:20;5.47;;;2.80;;
71629;SDS011;59479;51.902;8.212;2023-04-25T02:49:46;10.13;;;3.67;;
71629;SDS011;59479;51.902;8.212;2023-04-25T02:52:11;11.27;;;3.60;;
71629;SDS011;59479;51.902;8.212;2023-04-25T02:54:37;6.55;;;3.50;;
71629;SDS011;59479;51.902;8.212;2023-04-25T02:57:03;6.55;;;2.63;;
71629;SDS011;59479;51.902;8.212;2023-04-25T02:59:29;6.25;;;2.85;;
71629;SDS011;59479;51.902;8.212;2023-04-25T03:01:54;7.72;;;2.88;;
71629;SDS011;59479;51.902;8.212;2023-04-25T03:04:20;10.40;;;3.40;;
71629;SDS011;59479;51.902;8.212;2023-04-25T03:06:46;7.27;;;2.80;;
71629;SDS011;59479;51.902;8.212;2023-04-25T03:09:11;8.80;;;2.85;;
71629;SDS011;59479;51.902;8.212;2023-04-25T03:11:38;7.13;;;2.40;;
71629;SDS011;59479;51.902;8.212;2023-04-25T03:14:03;9.93;;;2.53;;
71629;SDS011;59479;51.902;8.212;2023-04-25T03:16:29;7.10;;;2.97;;
71629;SDS011;59479;51.902;8.212;2023-04-25T03:18:54;6.80;;;2.60;;
71629;SDS011;59479;51.902;8.212;2023-04-25T03:21:20;8.00;;;3.30;;
71629;SDS011;59479;51.902;8.212;2023-04-25T03:23:45;8.83;;;2.80;;
71629;SDS011;59479;51.902;8.212;2023-04-25T03:26:10;8.75;;;2.80;;
71629;SDS011;59479;51.902;8.212;2023-04-25T03:28:36;9.40;;;2.85;;
71629;SDS011;59479;51.902;8.212;2023-04-25T03:31:01;9.43;;;3.47;;
71629;SDS011;59479;51.902;8.212;2023-04-25T03:33:26;8.83;;;2.50;;
71629;SDS011;59479;51.902;8.212;2023-04-25T03:35:51;7.63;;;2.37;;
71629;SDS011;59479;51.902;8.212;2023-04-25T03:38:17;9.82;;;2.50;;
71629;SDS011;59479;51.902;8.212;2023-04-25T03:40:43;8.27;;;2.57;;
71629;SDS011;59479;51.902;8.212;2023-04-25T03:43:08;8.53;;;2.93;;
71629;SDS011;59479;51.902;8.212;2023-04-25T03:45:33;9.30;;;3.07;;
71629;SDS011;59479;51.902;8.212;2023-04-25T03:47:59;9.20;;;3.07;;
71629;SDS011;59479;51.902;8.212;2023-04-25T03:50:24;7.53;;;3.17;;
71629;SDS011;59479;51.902;8.212;2023-04-25T03:52:49;7.43;;;2.53;;
71629;SDS011;59479;51.902;8.212;2023-04-25T03:55:15;10.03;;;2.60;;
71629;SDS011;59479;51.902;8.212;2023-04-25T03:57:40;11.82;;;3.13;;
71629;SDS011;59479;51.902;8.212;2023-04-25T04:00:06;10.10;;;2.77;;
71629;SDS011;59479;51.902;8.212;2023-04-25T04:02:32;8.73;;;2.40;;
71629;SDS011;59479;51.902;8.212;2023-04-25T04:04:59;6.43;;;2.65;;
71629;SDS011;59479;51.902;8.212;2023-04-25T04:07:24;8.23;;;2.33;;
71629;SDS011;59479;51.902;8.212;2023-04-25T04:09:49;12.50;;;2.90;;
71629;SDS011;59479;51.902;8.212;2023-04-25T04:12:15;9.98;;;3.00;;
71629;SDS011;59479;51.902;8.212;2023-04-25T04:14:40;8.07;;;2.80;;
71629;SDS011;59479;51.902;8.212;2023-04-25T04:17:05;10.77;;;3.10;;
71629;SDS011;59479;51.902;8.212;2023-04-25T04:19:31;7.23;;;2.87;;
71629;SDS011;59479;51.902;8.212;2023-04-25T04:21:56;10.27;;;3.80;;
71629;SDS011;59479;51.902;8.212;2023-04-25T04:24:21;11.63;;;3.20;;
71629;SDS011;59479;51.902;8.212;2023-04-25T04:26:46;11.47;;;3.40;;
71629;SDS011;59479;51.902;8.212;2023-04-25T04:29:12;12.30;;;3.63;;
71629;SDS011;59479;51.902;8.212;2023-04-25T04:31:45;9.55;;;3.00;;
71629;SDS011;59479;51.902;8.212;2023-04-25T04:34:10;9.07;;;2.70;;
71629;SDS011;59479;51.902;8.212;2023-04-25T04:36:36;16.30;;;2.77;;
71629;SDS011;59479;51.902;8.212;2023-04-25T04:39:01;10.93;;;2.67;;
71629;SDS011;59479;51.902;8.212;2023-04-25T04:41:28;9.00;;;2.40;;
71629;SDS011;59479;51.902;8.212;2023-04-25T04:43:53;9.33;;;2.57;;
71629;SDS011;59479;51.902;8.212;2023-04-25T04:46:20;9.93;;;2.95;;
71629;SDS011;59479;51.902;8.212;2023-04-25T04:48:46;10.75;;;3.05;;
71629;SDS011;59479;51.902;8.212;2023-04-25T04:51:12;7.57;;;2.40;;
71629;SDS011;59479;51.902;8.212;2023-04-25T04:53:37;8.77;;;3.30;;
71629;SDS011;59479;51.902;8.212;2023-04-25T04:56:02;10.63;;;3.37;;
71629;SDS011;59479;51.902;8.212;2023-04-25T04:58:28;7.95;;;2.63;;
71629;SDS011;59479;51.902;8.212;2023-04-25T05:00:54;11.93;;;3.10;;
71629;SDS011;59479;51.902;8.212;2023-04-25T05:03:20;11.48;;;2.60;;
71629;SDS011;59479;51.902;8.212;2023-04-25T05:05:45;9.57;;;2.70;;
71629;SDS011;59479;51.902;8.212;2023-04-25T05:08:11;9.40;;;2.67;;
71629;SDS011;59479;51.902;8.212;2023-04-25T05:10:36;12.47;;;3.00;;
71629;SDS011;59479;51.902;8.212;2023-04-25T05:13:01;9.33;;;2.63;;
71629;SDS011;59479;51.902;8.212;2023-04-25T05:15:27;10.85;;;2.50;;
71629;SDS011;59479;51.902;8.212;2023-04-25T05:17:52;12.57;;;3.17;;
71629;SDS011;59479;51.902;8.212;2023-04-25T05:20:18;10.17;;;3.10;;
71629;SDS011;59479;51.902;8.212;2023-04-25T05:22:46;10.00;;;3.08;;
71629;SDS011;59479;51.902;8.212;2023-04-25T05:25:11;12.13;;;3.60;;
71629;SDS011;59479;51.902;8.212;2023-04-25T05:27:36;12.93;;;2.50;;
71629;SDS011;59479;51.902;8.212;2023-04-25T05:30:02;9.97;;;3.30;;
71629;SDS011;59479;51.902;8.212;2023-04-25T05:32:27;8.35;;;2.85;;
71629;SDS011;59479;51.902;8.212;2023-04-25T05:34:53;9.93;;;2.50;;
71629;SDS011;59479;51.902;8.212;2023-04-25T05:37:18;7.57;;;2.77;;
71629;SDS011;59479;51.902;8.212;2023-04-25T05:39:43;11.00;;;3.13;;
71629;SDS011;59479;51.902;8.212;2023-04-25T05:42:09;14.87;;;3.27;;
71629;SDS011;59479;51.902;8.212;2023-04-25T05:44:34;7.07;;;2.63;;
71629;SDS011;59479;51.902;8.212;2023-04-25T05:46:59;12.40;;;3.17;;
71629;SDS011;59479;51.902;8.212;2023-04-25T05:49:25;8.50;;;2.80;;
71629;SDS011;59479;51.902;8.212;2023-04-25T05:51:50;6.90;;;2.57;;
71629;SDS011;59479;51.902;8.212;2023-04-25T05:54:15;9.50;;;2.40;;
71629;SDS011;59479;51.902;8.212;2023-04-25T05:56:40;8.63;;;2.75;;
71629;SDS011;59479;51.902;8.212;2023-04-25T05:59:06;12.20;;;2.80;;
71629;SDS011;59479;51.902;8.212;2023-04-25T06:01:31;7.40;;;2.83;;
71629;SDS011;59479;51.902;8.212;2023-04-25T06:03:56;9.20;;;2.43;;
71629;SDS011;59479;51.902;8.212;2023-04-25T06:06:22;10.13;;;2.77;;
71629;SDS011;59479;51.902;8.212;2023-04-25T06:08:47;13.07;;;2.93;;
71629;SDS011;59479;51.902;8.212;2023-04-25T06:11:12;10.03;;;2.53;;
71629;SDS011;59479;51.902;8.212;2023-04-25T06:13:38;8.83;;;2.30;;
71629;SDS011;59479;51.902;8.212;2023-04-25T06:16:03;11.20;;;2.73;;
71629;SDS011;59479;51.902;8.212;2023-04-25T06:18:29;11.85;;;2.88;;
71629;SDS011;59479;51.902;8.212;2023-04-25T06:20:55;13.15;;;2.97;;
71629;SDS011;59479;51.902;8.212;2023-04-25T06:23:20;13.13;;;2.28;;
71629;SDS011;59479;51.902;8.212;2023-04-25T06:25:45;8.77;;;2.50;;
71629;SDS011;59479;51.902;8.212;2023-04-25T06:28:11;9.70;;;2.70;;
71629;SDS011;59479;51.902;8.212;2023-04-25T06:30:36;9.50;;;2.83;;
71629;SDS011;59479;51.902;8.212;2023-04-25T06:33:01;13.03;;;2.90;;
71629;SDS011;59479;51.902;8.212;2023-04-25T06:35:27;12.23;;;2.80;;
71629;SDS011;59479;51.902;8.212;2023-04-25T06:37:52;8.07;;;2.60;;
71629;SDS011;59479;51.902;8.212;2023-04-25T06:40:17;10.23;;;2.73;;
71629;SDS011;59479;51.902;8.212;2023-04-25T06:42:43;8.55;;;2.50;;
71629;SDS011;59479;51.902;8.212;2023-04-25T06:45:08;8.57;;;2.35;;
71629;SDS011;59479;51.902;8.212;2023-04-25T06:47:34;13.23;;;3.43;;
71629;SDS011;59479;51.902;8.212;2023-04-25T06:49:59;10.40;;;3.30;;
71629;SDS011;59479;51.902;8.212;2023-04-25T06:52:24;12.53;;;2.93;;
71629;SDS011;59479;51.902;8.212;2023-04-25T06:54:50;9.37;;;2.10;;
71629;SDS011;59479;51.902;8.212;2023-04-25T06:57:15;9.27;;;2.30;;
71629;SDS011;59479;51.902;8.212;2023-04-25T06:59:40;7.20;;;2.53;;
71629;SDS011;59479;51.902;8.212;2023-04-25T07:02:06;7.67;;;2.27;;
71629;SDS011;59479;51.902;8.212;2023-04-25T07:04:31;14.40;;;2.87;;
71629;SDS011;59479;51.902;8.212;2023-04-25T07:06:56;5.10;;;1.93;;
71629;SDS011;59479;51.902;8.212;2023-04-25T07:09:22;8.70;;;2.40;;
71629;SDS011;59479;51.902;8.212;2023-04-25T07:11:47;4.63;;;1.87;;
71629;SDS011;59479;51.902;8.212;2023-04-25T07:14:12;10.47;;;2.50;;
71629;SDS011;59479;51.902;8.212;2023-04-25T07:16:38;8.68;;;2.38;;
71629;SDS011;59479;51.902;8.212;2023-04-25T07:19:03;10.10;;;2.30;;
71629;SDS011;59479;51.902;8.212;2023-04-25T07:21:28;9.67;;;2.30;;
71629;SDS011;59479;51.902;8.212;2023-04-25T07:23:55;9.82;;;2.22;;
71629;SDS011;59479;51.902;8.212;2023-04-25T07:26:21;8.83;;;2.07;;
71629;SDS011;59479;51.902;8.212;2023-04-25T07:28:46;8.23;;;2.63;;
71629;SDS011;59479;51.902;8.212;2023-04-25T07:31:14;6.05;;;2.28;;
71629;SDS011;59479;51.902;8.212;2023-04-25T07:33:42;6.23;;;1.80;;
71629;SDS011;59479;51.902;8.212;2023-04-25T07:36:07;13.57;;;2.67;;
71629;SDS011;59479;51.902;8.212;2023-04-25T07:38:33;5.75;;;1.50;;
71629;SDS011;59479;51.902;8.212;2023-04-25T07:40:58;6.03;;;1.77;;
71629;SDS011;59479;51.902;8.212;2023-04-25T07:43:23;9.47;;;2.20;;
71629;SDS011;59479;51.902;8.212;2023-04-25T07:45:49;7.93;;;2.00;;
71629;SDS011;59479;51.902;8.212;2023-04-25T07:48:17;6.57;;;1.87;;
71629;SDS011;59479;51.902;8.212;2023-04-25T07:50:46;6.72;;;1.60;;
71629;SDS011;59479;51.902;8.212;2023-04-25T07:53:11;8.20;;;2.07;;
71629;SDS011;59479;51.902;8.212;2023-04-25T07:55:37;9.47;;;2.07;;
71629;SDS011;59479;51.902;8.212;2023-04-25T07:58:05;7.65;;;1.67;;
71629;SDS011;59479;51.902;8.212;2023-04-25T08:00:34;8.70;;;2.03;;
71629;SDS011;59479;51.902;8.212;2023-04-25T08:03:06;12.90;;;2.77;;
71629;SDS011;59479;51.902;8.212;2023-04-25T08:05:45;7.18;;;1.77;;
71629;SDS011;59479;51.902;8.212;2023-04-25T08:08:20;6.82;;;1.52;;
71629;SDS011;59479;51.902;8.212;2023-04-25T08:10:45;10.27;;;2.10;;
71629;SDS011;59479;51.902;8.212;2023-04-25T08:13:16;7.15;;;1.85;;
71629;SDS011;59479;51.902;8.212;2023-04-25T08:15:44;10.27;;;2.20;;
71629;SDS011;59479;51.902;8.212;2023-04-25T08:18:12;7.63;;;1.85;;
71629;SDS011;59479;51.902;8.212;2023-04-25T08:20:45;7.65;;;2.17;;
71629;SDS011;59479;51.902;8.212;2023-04-25T08:23:18;7.78;;;1.90;;
71629;SDS011;59479;51.902;8.212;2023-04-25T08:25:46;7.83;;;1.47;;
71629;SDS011;59479;51.902;8.212;2023-04-25T08:28:27;9.98;;;2.28;;
71629;SDS011;59479;51.902;8.212;2023-04-25T08:30:58;7.95;;;2.10;;
71629;SDS011;59479;51.902;8.212;2023-04-25T08:33:40;6.75;;;1.50;;
71629;SDS011;59479;51.902;8.212;2023-04-25T08:36:06;9.70;;;2.20;;
71629;SDS011;59479;51.902;8.212;2023-04-25T08:38:33;8.15;;;1.75;;
71629;SDS011;59479;51.902;8.212;2023-04-25T08:40:59;7.63;;;1.97;;
71629;SDS011;59479;51.902;8.212;2023-04-25T08:43:25;8.43;;;1.55;;
71629;SDS011;59479;51.902;8.212;2023-04-25T08:45:53;7.30;;;2.20;;
71629;SDS011;59479;51.902;8.212;2023-04-25T08:48:24;8.20;;;2.13;;
71629;SDS011;59479;51.902;8.212;2023-04-25T08:51:04;7.80;;;1.88;;
71629;SDS011;59479;51.902;8.212;2023-04-25T08:53:32;6.20;;;1.90;;
71629;SDS011;59479;51.902;8.212;2023-04-25T08:56:06;6.90;;;1.50;;
71629;SDS011;59479;51.902;8.212;2023-04-25T08:58:45;8.03;;;1.87;;
71629;SDS011;59479;51.902;8.212;2023-04-25T09:01:17;8.95;;;2.00;;
71629;SDS011;59479;51.902;8.212;2023-04-25T09:03:47;9.43;;;2.20;;
71629;SDS011;59479;51.902;8.212;2023-04-25T09:06:16;6.38;;;1.70;;
71629;SDS011;59479;51.902;8.212;2023-04-25T09:08:43;7.38;;;1.92;;
71629;SDS011;59479;51.902;8.212;2023-04-25T09:11:08;8.13;;;2.00;;
71629;SDS011;59479;51.902;8.212;2023-04-25T09:13:34;7.40;;;1.67;;
71629;SDS011;59479;51.902;8.212;2023-04-25T09:16:02;7.35;;;1.77;;
71629;SDS011;59479;51.902;8.212;2023-04-25T09:18:48;6.00;;;2.00;;
71629;SDS011;59479;51.902;8.212;2023-04-25T09:21:23;6.43;;;1.70;;
71629;SDS011;59479;51.902;8.212;2023-04-25T09:23:49;7.30;;;2.17;;
71629;SDS011;59479;51.902;8.212;2023-04-25T09:26:19;7.07;;;1.70;;
71629;SDS011;59479;51.902;8.212;2023-04-25T09:28:48;6.13;;;1.87;;
71629;SDS011;59479;51.902;8.212;2023-04-25T09:31:37;9.60;;;1.70;;
71629;SDS011;59479;51.902;8.212;2023-04-25T09:34:02;6.20;;;1.67;;
71629;SDS011;59479;51.902;8.212;2023-04-25T09:39:11;8.55;;;2.00;;
71629;SDS011;59479;51.902;8.212;2023-04-25T09:41:40;8.55;;;2.03;;
71629;SDS011;59479;51.902;8.212;2023-04-25T09:44:08;5.77;;;1.87;;
71629;SDS011;59479;51.902;8.212;2023-04-25T09:46:38;10.50;;;2.95;;
71629;SDS011;59479;51.902;8.212;2023-04-25T09:49:14;8.05;;;2.30;;
71629;SDS011;59479;51.902;8.212;2023-04-25T09:51:40;4.60;;;1.73;;
71629;SDS011;59479;51.902;8.212;2023-04-25T09:54:05;7.27;;;1.83;;
71629;SDS011;59479;51.902;8.212;2023-04-25T09:56:39;5.95;;;1.77;;
71629;SDS011;59479;51.902;8.212;2023-04-25T09:59:12;5.93;;;1.80;;
71629;SDS011;59479;51.902;8.212;2023-04-25T10:01:44;7.40;;;1.80;;
71629;SDS011;59479;51.902;8.212;2023-04-25T10:04:13;4.65;;;1.60;;
71629;SDS011;59479;51.902;8.212;2023-04-25T10:06:54;4.95;;;1.80;;
71629;SDS011;59479;51.902;8.212;2023-04-25T10:09:25;6.63;;;1.60;;
71629;SDS011;59479;51.902;8.212;2023-04-25T10:11:52;6.25;;;1.38;;
71629;SDS011;59479;51.902;8.212;2023-04-25T10:14:21;4.30;;;1.20;;
71629;SDS011;59479;51.902;8.212;2023-04-25T10:16:49;6.97;;;1.75;;
71629;SDS011;59479;51.902;8.212;2023-04-25T10:19:24;6.10;;;2.00;;
71629;SDS011;59479;51.902;8.212;2023-04-25T10:24:36;5.77;;;2.33;;
71629;SDS011;59479;51.902;8.212;2023-04-25T10:27:09;6.65;;;1.85;;
71629;SDS011;59479;51.902;8.212;2023-04-25T10:29:41;6.25;;;1.70;;
71629;SDS011;59479;51.902;8.212;2023-04-25T10:32:08;6.85;;;2.13;;
71629;SDS011;59479;51.902;8.212;2023-04-25T10:34:40;5.68;;;1.50;;
71629;SDS011;59479;51.902;8.212;2023-04-25T10:37:10;7.80;;;2.23;;
71629;SDS011;59479;51.902;8.212;2023-04-25T10:39:39;6.50;;;2.38;;
71629;SDS011;59479;51.902;8.212;2023-04-25T10:42:09;10.43;;;2.38;;
71629;SDS011;59479;51.902;8.212;2023-04-25T10:44:35;9.27;;;2.20;;
71629;SDS011;59479;51.902;8.212;2023-04-25T10:47:06;9.18;;;2.60;;
71629;SDS011;59479;51.902;8.212;2023-04-25T10:49:35;5.90;;;2.13;;
71629;SDS011;59479;51.902;8.212;2023-04-25T10:55:00;6.13;;;1.70;;
71629;SDS011;59479;51.902;8.212;2023-04-25T11:00:12;4.18;;;1.27;;
71629;SDS011;59479;51.902;8.212;2023-04-25T11:02:41;5.50;;;1.50;;
71629;SDS011;59479;51.902;8.212;2023-04-25T11:05:10;7.55;;;1.60;;
71629;SDS011;59479;51.902;8.212;2023-04-25T11:07:44;5.18;;;1.40;;
71629;SDS011;59479;51.902;8.212;2023-04-25T11:10:42;7.38;;;1.60;;
71629;SDS011;59479;51.902;8.212;2023-04-25T11:13:10;3.53;;;1.20;;
71629;SDS011;59479;51.902;8.212;2023-04-25T11:15:39;6.03;;;1.50;;
71629;SDS011;59479;51.902;8.212;2023-04-25T11:18:04;5.88;;;1.60;;
71629;SDS011;59479;51.902;8.212;2023-04-25T11:20:36;3.78;;;1.20;;
71629;SDS011;59479;51.902;8.212;2023-04-25T11:23:22;5.68;;;1.70;;
71629;SDS011;59479;51.902;8.212;2023-04-25T11:25:50;3.30;;;1.30;;
71629;SDS011;59479;51.902;8.212;2023-04-25T11:28:23;4.60;;;1.77;;
71629;SDS011;59479;51.902;8.212;2023-04-25T11:30:49;4.80;;;1.33;;
71629;SDS011;59479;51.902;8.212;2023-04-25T11:33:15;5.90;;;1.67;;
71629;SDS011;59479;51.902;8.212;2023-04-25T11:35:41;4.50;;;1.70;;
71629;SDS011;59479;51.902;8.212;2023-04-25T11:38:11;4.85;;;1.48;;
71629;SDS011;59479;51.902;8.212;2023-04-25T11:40:41;4.07;;;1.40;;
71629;SDS011;59479;51.902;8.212;2023-04-25T11:43:06;4.05;;;1.50;;
71629;SDS011;59479;51.902;8.212;2023-04-25T11:45:32;5.40;;;1.50;;
71629;SDS011;59479;51.902;8.212;2023-04-25T11:48:04;5.65;;;1.40;;
71629;SDS011;59479;51.902;8.212;2023-04-25T11:50:33;5.07;;;1.70;;
71629;SDS011;59479;51.902;8.212;2023-04-25T11:52:58;5.10;;;1.48;;
71629;SDS011;59479;51.902;8.212;2023-04-25T11:55:23;6.20;;;2.00;;
71629;SDS011;59479;51.902;8.212;2023-04-25T11:57:52;5.20;;;1.70;;
71629;SDS011;59479;51.902;8.212;2023-04-25T12:00:19;4.63;;;1.30;;
71629;SDS011;59479;51.902;8.212;2023-04-25T12:02:52;6.22;;;1.42;;
71629;SDS011;59479;51.902;8.212;2023-04-25T12:05:25;4.97;;;1.70;;
71629;SDS011;59479;51.902;8.212;2023-04-25T12:07:52;3.92;;;1.45;;
71629;SDS011;59479;51.902;8.212;2023-04-25T12:10:21;6.55;;;1.58;;
71629;SDS011;59479;51.902;8.212;2023-04-25T12:12:52;4.87;;;1.30;;
71629;SDS011;59479;51.902;8.212;2023-04-25T12:15:25;8.68;;;1.52;;
71629;SDS011;59479;51.902;8.212;2023-04-25T12:17:51;5.72;;;1.30;;
71629;SDS011;59479;51.902;8.212;2023-04-25T12:20:19;4.80;;;1.13;;
71629;SDS011;59479;51.902;8.212;2023-04-25T12:22:48;6.63;;;1.20;;
71629;SDS011;59479;51.902;8.212;2023-04-25T12:28:16;5.75;;;1.50;;
71629;SDS011;59479;51.902;8.212;2023-04-25T12:33:43;6.95;;;1.60;;
71629;SDS011;59479;51.902;8.212;2023-04-25T12:36:12;4.43;;;1.85;;
71629;SDS011;59479;51.902;8.212;2023-04-25T12:38:45;7.60;;;1.47;;
71629;SDS011;59479;51.902;8.212;2023-04-25T12:41:14;5.60;;;1.42;;
71629;SDS011;59479;51.902;8.212;2023-04-25T12:43:46;3.60;;;1.23;;
71629;SDS011;59479;51.902;8.212;2023-04-25T12:46:11;4.15;;;1.20;;
71629;SDS011;59479;51.902;8.212;2023-04-25T12:48:39;3.37;;;1.30;;
71629;SDS011;59479;51.902;8.212;2023-04-25T12:51:05;2.60;;;1.10;;
71629;SDS011;59479;51.902;8.212;2023-04-25T12:53:37;3.17;;;1.23;;
71629;SDS011;59479;51.902;8.212;2023-04-25T12:56:03;4.83;;;1.17;;
71629;SDS011;59479;51.902;8.212;2023-04-25T12:58:29;3.58;;;1.10;;
71629;SDS011;59479;51.902;8.212;2023-04-25T13:00:55;6.17;;;1.40;;
71629;SDS011;59479;51.902;8.212;2023-04-25T13:03:20;3.80;;;1.27;;
71629;SDS011;59479;51.902;8.212;2023-04-25T13:05:54;3.00;;;1.23;;
71629;SDS011;59479;51.902;8.212;2023-04-25T13:08:22;4.00;;;1.30;;
71629;SDS011;59479;51.902;8.212;2023-04-25T13:10:47;3.83;;;1.20;;
71629;SDS011;59479;51.902;8.212;2023-04-25T13:13:13;3.67;;;1.30;;
71629;SDS011;59479;51.902;8.212;2023-04-25T13:15:38;3.07;;;1.30;;
71629;SDS011;59479;51.902;8.212;2023-04-25T13:18:10;4.50;;;1.42;;
71629;SDS011;59479;51.902;8.212;2023-04-25T13:20:35;3.07;;;1.10;;
71629;SDS011;59479;51.902;8.212;2023-04-25T13:23:01;4.70;;;1.33;;
71629;SDS011;59479;51.902;8.212;2023-04-25T13:25:26;5.70;;;1.00;;
71629;SDS011;59479;51.902;8.212;2023-04-25T13:27:59;3.43;;;1.33;;
71629;SDS011;59479;51.902;8.212;2023-04-25T13:30:35;3.72;;;1.33;;
71629;SDS011;59479;51.902;8.212;2023-04-25T13:33:01;5.30;;;1.35;;
71629;SDS011;59479;51.902;8.212;2023-04-25T13:35:34;4.03;;;1.52;;
71629;SDS011;59479;51.902;8.212;2023-04-25T13:38:00;3.80;;;1.30;;
71629;SDS011;59479;51.902;8.212;2023-04-25T13:40:29;7.00;;;2.28;;
71629;SDS011;59479;51.902;8.212;2023-04-25T13:42:57;3.20;;;1.10;;
71629;SDS011;59479;51.902;8.212;2023-04-25T13:45:23;5.22;;;1.23;;
71629;SDS011;59479;51.902;8.212;2023-04-25T13:47:54;7.88;;;1.63;;
71629;SDS011;59479;51.902;8.212;2023-04-25T13:50:20;2.83;;;1.10;;
71629;SDS011;59479;51.902;8.212;2023-04-25T13:52:50;2.70;;;1.10;;
71629;SDS011;59479;51.902;8.212;2023-04-25T13:55:16;3.77;;;1.33;;
71629;SDS011;59479;51.902;8.212;2023-04-25T13:57:42;4.55;;;1.42;;
71629;SDS011;59479;51.902;8.212;2023-04-25T14:00:10;4.40;;;1.20;;
71629;SDS011;59479;51.902;8.212;2023-04-25T14:02:42;4.30;;;1.60;;
71629;SDS011;59479;51.902;8.212;2023-04-25T14:05:24;4.57;;;1.20;;
71629;SDS011;59479;51.902;8.212;2023-04-25T14:08:13;4.18;;;1.55;;
71629;SDS011;59479;51.902;8.212;2023-04-25T14:13:45;5.30;;;1.80;;
71629;SDS011;59479;51.902;8.212;2023-04-25T14:16:13;4.43;;;1.90;;
71629;SDS011;59479;51.902;8.212;2023-04-25T14:18:45;4.50;;;1.70;;
71629;SDS011;59479;51.902;8.212;2023-04-25T14:21:10;6.82;;;1.50;;
71629;SDS011;59479;51.902;8.212;2023-04-25T14:23:46;3.90;;;1.40;;
71629;SDS011;59479;51.902;8.212;2023-04-25T14:29:15;4.50;;;1.60;;
71629;SDS011;59479;51.902;8.212;2023-04-25T14:31:45;4.27;;;1.33;;
71629;SDS011;59479;51.902;8.212;2023-04-25T14:35:09;5.00;;;1.88;;
71629;SDS011;59479;51.902;8.212;2023-04-25T14:38:13;3.70;;;1.40;;
71629;SDS011;59479;51.902;8.212;2023-04-25T14:44:10;3.67;;;1.52;;
71629;SDS011;59479;51.902;8.212;2023-04-25T14:46:58;6.50;;;1.67;;
71629;SDS011;59479;51.902;8.212;2023-04-25T14:52:39;6.07;;;1.67;;
71629;SDS011;59479;51.902;8.212;2023-04-25T14:55:12;5.15;;;1.70;;
71629;SDS011;59479;51.902;8.212;2023-04-25T14:57:42;4.95;;;1.90;;
71629;SDS011;59479;51.902;8.212;2023-04-25T15:00:08;5.27;;;1.77;;
71629;SDS011;59479;51.902;8.212;2023-04-25T15:02:44;4.25;;;1.80;;
71629;SDS011;59479;51.902;8.212;2023-04-25T15:05:13;5.40;;;1.98;;
71629;SDS011;59479;51.902;8.212;2023-04-25T15:07:47;5.35;;;1.80;;
71629;SDS011;59479;51.902;8.212;2023-04-25T15:10:24;5.37;;;1.80;;
71629;SDS011;59479;51.902;8.212;2023-04-25T15:13:18;5.13;;;2.03;;
71629;SDS011;59479;51.902;8.212;2023-04-25T15:15:47;4.07;;;2.13;;
71629;SDS011;59479;51.902;8.212;2023-04-25T15:18:47;5.90;;;1.95;;
71629;SDS011;59479;51.902;8.212;2023-04-25T15:21:15;5.80;;;2.03;;